sensor_id;sensor_type;location;lat;lon;timestamp;P1;durP1;ratioP1;P2;durP2;ratioP2
2011;SDS011;1009;51.436;6.972;2023-04-28T00:00:53;10.13;;;6.77;;
2011;SDS011;1009;51.436;6.972;2023-04-28T00:03:20;10.00;;;6.83;;
2011;SDS011;1009;51.436;6.972;2023-04-28T00:05:53;10.30;;;6.83;;
2011;SDS011;1009;51.436;6.972;2023-04-28T00:08:20;7.90;;;7.10;;
2011;SDS011;1009;51.436;6.972;2023-04-28T00:10:51;8.73;;;6.80;;
2011;SDS011;1009;51.436;6.972;2023-04-28T00:13:18;9.33;;;6.30;;
2011;SDS011;1009;51.436;6.972;2023-04-28T00:15:44;12.97;;;8.97;;
2011;SDS011;1009;51.436;6.972;2023-04-28T00:18:11;10.90;;;7.77;;
2011;SDS011;1009;51.436;6.972;2023-04-28T00:20:38;11.70;;;8.60;;
2011;SDS011;1009;51.436;6.972;2023-04-28T00:23:04;10.43;;;8.10;;
2011;SDS011;1009;51.436;6.972;2023-04-28T00:25:31;9.97;;;7.33;;
2011;SDS011;1009;51.436;6.972;2023-04-28T00:28:00;10.87;;;7.03;;
2011;SDS011;1009;51.436;6.972;2023-04-28T00:30:29;10.70;;;8.03;;
2011;SDS011;1009;51.436;6.972;2023-04-28T00:32:56;10.97;;;7.70;;
2011;SDS011;1009;51.436;6.972;2023-04-28T00:35:23;11.13;;;8.00;;
2011;SDS011;1009;51.436;6.972;2023-04-28T00:37:50;18.63;;;7.87;;
2011;SDS011;1009;51.436;6.972;2023-04-28T00:40:16;11.47;;;7.83;;
2011;SDS011;1009;51.436;6.972;2023-04-28T00:42:43;11.30;;;8.50;;
2011;SDS011;1009;51.436;6.972;2023-04-28T00:45:11;12.73;;;8.03;;
2011;SDS011;1009;51.436;6.972;2023-04-28T00:47:38;15.43;;;9.10;;
2011;SDS011;1009;51.436;6.972;2023-04-28T00:50:05;11.13;;;7.87;;
2011;SDS011;1009;51.436;6.972;2023-04-28T00:52:34;16.57;;;9.33;;
2011;SDS011;1009;51.436;6.972;2023-04-28T00:55:07;12.23;;;8.70;;
2011;SDS011;1009;51.436;6.972;2023-04-28T00:57:35;10.43;;;8.70;;
2011;SDS011;1009;51.436;6.972;2023-04-28T01:00:05;10.93;;;8.40;;
2011;SDS011;1009;51.436;6.972;2023-04-28T01:02:34;11.40;;;8.70;;
2011;SDS011;1009;51.436;6.972;2023-04-28T01:05:01;15.43;;;9.70;;
2011;SDS011;1009;51.436;6.972;2023-04-28T01:07:30;15.87;;;9.20;;
2011;SDS011;1009;51.436;6.972;2023-04-28T01:09:58;13.70;;;8.40;;
2011;SDS011;1009;51.436;6.972;2023-04-28T01:12:25;12.23;;;9.03;;
2011;SDS011;1009;51.436;6.972;2023-04-28T01:14:52;12.60;;;9.43;;
2011;SDS011;1009;51.436;6.972;2023-04-28T01:17:19;14.43;;;11.17;;
2011;SDS011;1009;51.436;6.972;2023-04-28T01:19:47;18.63;;;9.67;;
2011;SDS011;1009;51.436;6.972;2023-04-28T01:22:13;18.40;;;10.97;;
2011;SDS011;1009;51.436;6.972;2023-04-28T01:24:41;14.43;;;11.60;;
2011;SDS011;1009;51.436;6.972;2023-04-28T01:27:08;15.17;;;10.67;;
2011;SDS011;1009;51.436;6.972;2023-04-28T01:29:35;15.37;;;10.97;;
2011;SDS011;1009;51.436;6.972;2023-04-28T01:32:02;16.93;;;12.20;;
2011;SDS011;1009;51.436;6.972;2023-04-28T01:34:29;14.33;;;12.43;;
2011;SDS011;1009;51.436;6.972;2023-04-28T01:36:55;18.03;;;11.50;;
2011;SDS011;1009;51.436;6.972;2023-04-28T01:39:22;15.63;;;10.50;;
2011;SDS011;1009;51.436;6.972;2023-04-28T01:41:50;15.40;;;9.53;;
2011;SDS011;1009;51.436;6.972;2023-04-28T01:44:17;12.50;;;10.10;;
2011;SDS011;1009;51.436;6.972;2023-04-28T01:46:44;14.40;;;11.80;;
2011;SDS011;1009;51.436;6.972;2023-04-28T01:49:10;14.50;;;11.00;;
2011;SDS011;1009;51.436;6.972;2023-04-28T01:51:37;14.93;;;10.90;;
2011;SDS011;1009;51.436;6.972;2023-04-28T01:54:04;16.00;;;11.40;;
2011;SDS011;1009;51.436;6.972;2023-04-28T01:56:31;18.03;;;12.00;;
2011;SDS011;1009;51.436;6.972;2023-04-28T01:58:59;18.23;;;12.37;;
2011;SDS011;1009;51.436;6.972;2023-04-28T02:01:26;19.20;;;12.47;;
2011;SDS011;1009;51.436;6.972;2023-04-28T02:03:52;21.00;;;13.93;;
2011;SDS011;1009;51.436;6.972;2023-04-28T02:06:20;20.63;;;13.20;;
2011;SDS011;1009;51.436;6.972;2023-04-28T02:08:47;19.40;;;13.80;;
2011;SDS011;1009;51.436;6.972;2023-04-28T02:11:13;19.63;;;12.13;;
2011;SDS011;1009;51.436;6.972;2023-04-28T02:13:40;19.17;;;13.07;;
2011;SDS011;1009;51.436;6.972;2023-04-28T02:16:08;18.90;;;13.03;;
2011;SDS011;1009;51.436;6.972;2023-04-28T02:18:35;18.90;;;14.30;;
2011;SDS011;1009;51.436;6.972;2023-04-28T02:21:07;18.80;;;12.17;;
2011;SDS011;1009;51.436;6.972;2023-04-28T02:23:35;22.83;;;12.80;;
2011;SDS011;1009;51.436;6.972;2023-04-28T02:26:02;19.67;;;12.90;;
2011;SDS011;1009;51.436;6.972;2023-04-28T02:28:29;18.13;;;14.67;;
2011;SDS011;1009;51.436;6.972;2023-04-28T02:31:02;20.00;;;12.23;;
2011;SDS011;1009;51.436;6.972;2023-04-28T02:33:30;18.20;;;13.20;;
2011;SDS011;1009;51.436;6.972;2023-04-28T02:35:57;19.20;;;12.70;;
2011;SDS011;1009;51.436;6.972;2023-04-28T02:38:24;27.20;;;16.03;;
2011;SDS011;1009;51.436;6.972;2023-04-28T02:40:56;21.23;;;14.30;;
2011;SDS011;1009;51.436;6.972;2023-04-28T02:43:23;22.10;;;16.03;;
2011;SDS011;1009;51.436;6.972;2023-04-28T02:45:50;20.27;;;13.53;;
2011;SDS011;1009;51.436;6.972;2023-04-28T02:48:17;20.60;;;14.90;;
2011;SDS011;1009;51.436;6.972;2023-04-28T02:50:48;21.30;;;13.57;;
2011;SDS011;1009;51.436;6.972;2023-04-28T02:53:16;19.50;;;13.27;;
2011;SDS011;1009;51.436;6.972;2023-04-28T02:55:43;22.50;;;12.97;;
2011;SDS011;1009;51.436;6.972;2023-04-28T02:58:10;19.90;;;14.63;;
2011;SDS011;1009;51.436;6.972;2023-04-28T03:00:37;19.77;;;14.67;;
2011;SDS011;1009;51.436;6.972;2023-04-28T03:03:03;22.47;;;16.00;;
2011;SDS011;1009;51.436;6.972;2023-04-28T03:05:30;22.13;;;14.77;;
2011;SDS011;1009;51.436;6.972;2023-04-28T03:07:58;20.50;;;13.70;;
2011;SDS011;1009;51.436;6.972;2023-04-28T03:10:25;19.00;;;13.17;;
2011;SDS011;1009;51.436;6.972;2023-04-28T03:12:53;18.70;;;15.30;;
2011;SDS011;1009;51.436;6.972;2023-04-28T03:15:20;16.40;;;13.60;;
2011;SDS011;1009;51.436;6.972;2023-04-28T03:17:46;19.40;;;12.90;;
2011;SDS011;1009;51.436;6.972;2023-04-28T03:20:13;20.83;;;13.80;;
2011;SDS011;1009;51.436;6.972;2023-04-28T03:22:40;19.83;;;13.80;;
2011;SDS011;1009;51.436;6.972;2023-04-28T03:25:11;17.93;;;13.30;;
2011;SDS011;1009;51.436;6.972;2023-04-28T03:27:38;19.77;;;14.73;;
2011;SDS011;1009;51.436;6.972;2023-04-28T03:30:05;20.93;;;15.57;;
2011;SDS011;1009;51.436;6.972;2023-04-28T03:32:32;21.50;;;16.50;;
2011;SDS011;1009;51.436;6.972;2023-04-28T03:34:59;18.37;;;15.10;;
2011;SDS011;1009;51.436;6.972;2023-04-28T03:37:26;24.93;;;18.97;;
2011;SDS011;1009;51.436;6.972;2023-04-28T03:39:52;20.67;;;15.87;;
2011;SDS011;1009;51.436;6.972;2023-04-28T03:42:20;19.50;;;16.90;;
2011;SDS011;1009;51.436;6.972;2023-04-28T03:44:47;21.03;;;16.57;;
2011;SDS011;1009;51.436;6.972;2023-04-28T03:47:14;26.73;;;17.00;;
2011;SDS011;1009;51.436;6.972;2023-04-28T03:49:43;20.90;;;14.90;;
2011;SDS011;1009;51.436;6.972;2023-04-28T03:52:10;19.27;;;13.83;;
2011;SDS011;1009;51.436;6.972;2023-04-28T03:54:37;19.30;;;13.20;;
2011;SDS011;1009;51.436;6.972;2023-04-28T03:57:05;18.53;;;12.83;;
2011;SDS011;1009;51.436;6.972;2023-04-28T03:59:33;18.43;;;13.47;;
2011;SDS011;1009;51.436;6.972;2023-04-28T04:02:00;17.23;;;12.93;;
2011;SDS011;1009;51.436;6.972;2023-04-28T04:04:26;17.20;;;12.90;;
2011;SDS011;1009;51.436;6.972;2023-04-28T04:06:53;18.03;;;13.20;;
2011;SDS011;1009;51.436;6.972;2023-04-28T04:09:20;15.80;;;12.97;;
2011;SDS011;1009;51.436;6.972;2023-04-28T04:11:47;18.40;;;12.40;;
2011;SDS011;1009;51.436;6.972;2023-04-28T04:14:13;17.30;;;12.40;;
2011;SDS011;1009;51.436;6.972;2023-04-28T04:16:41;13.83;;;11.70;;
2011;SDS011;1009;51.436;6.972;2023-04-28T04:19:08;16.47;;;12.93;;
2011;SDS011;1009;51.436;6.972;2023-04-28T04:21:35;15.07;;;11.63;;
2011;SDS011;1009;51.436;6.972;2023-04-28T04:24:02;13.23;;;11.83;;
2011;SDS011;1009;51.436;6.972;2023-04-28T04:26:29;15.43;;;12.30;;
2011;SDS011;1009;51.436;6.972;2023-04-28T04:28:55;15.63;;;11.90;;
2011;SDS011;1009;51.436;6.972;2023-04-28T04:31:22;15.43;;;11.67;;
2011;SDS011;1009;51.436;6.972;2023-04-28T04:33:50;15.50;;;13.10;;
2011;SDS011;1009;51.436;6.972;2023-04-28T04:36:17;13.53;;;11.50;;
2011;SDS011;1009;51.436;6.972;2023-04-28T04:38:44;16.17;;;12.63;;
2011;SDS011;1009;51.436;6.972;2023-04-28T04:41:11;14.23;;;11.17;;
2011;SDS011;1009;51.436;6.972;2023-04-28T04:43:38;16.80;;;11.80;;
2011;SDS011;1009;51.436;6.972;2023-04-28T04:46:04;16.47;;;11.47;;
2011;SDS011;1009;51.436;6.972;2023-04-28T04:48:31;16.03;;;11.63;;
2011;SDS011;1009;51.436;6.972;2023-04-28T04:51:00;15.70;;;12.10;;
2011;SDS011;1009;51.436;6.972;2023-04-28T04:53:26;15.93;;;11.90;;
2011;SDS011;1009;51.436;6.972;2023-04-28T04:55:53;16.10;;;13.00;;
2011;SDS011;1009;51.436;6.972;2023-04-28T04:58:20;16.53;;;11.27;;
2011;SDS011;1009;51.436;6.972;2023-04-28T05:00:47;15.57;;;12.00;;
2011;SDS011;1009;51.436;6.972;2023-04-28T05:03:14;13.67;;;11.17;;
2011;SDS011;1009;51.436;6.972;2023-04-28T05:05:41;17.73;;;12.70;;
2011;SDS011;1009;51.436;6.972;2023-04-28T05:08:10;13.57;;;11.90;;
2011;SDS011;1009;51.436;6.972;2023-04-28T05:10:37;21.80;;;13.73;;
2011;SDS011;1009;51.436;6.972;2023-04-28T05:13:04;18.80;;;14.60;;
2011;SDS011;1009;51.436;6.972;2023-04-28T05:15:31;23.17;;;17.10;;
2011;SDS011;1009;51.436;6.972;2023-04-28T05:17:57;16.00;;;14.30;;
2011;SDS011;1009;51.436;6.972;2023-04-28T05:20:24;15.60;;;13.87;;
2011;SDS011;1009;51.436;6.972;2023-04-28T05:22:51;20.97;;;14.10;;
2011;SDS011;1009;51.436;6.972;2023-04-28T05:25:19;16.00;;;14.30;;
2011;SDS011;1009;51.436;6.972;2023-04-28T05:27:46;18.67;;;14.47;;
2011;SDS011;1009;51.436;6.972;2023-04-28T05:30:13;15.87;;;13.90;;
2011;SDS011;1009;51.436;6.972;2023-04-28T05:32:40;19.70;;;14.60;;
2011;SDS011;1009;51.436;6.972;2023-04-28T05:35:07;22.17;;;16.43;;
2011;SDS011;1009;51.436;6.972;2023-04-28T05:37:34;16.90;;;15.10;;
2011;SDS011;1009;51.436;6.972;2023-04-28T05:40:02;15.97;;;12.27;;
2011;SDS011;1009;51.436;6.972;2023-04-28T05:42:31;18.80;;;14.40;;
2011;SDS011;1009;51.436;6.972;2023-04-28T05:44:57;21.60;;;13.23;;
2011;SDS011;1009;51.436;6.972;2023-04-28T05:47:24;14.63;;;11.17;;
2011;SDS011;1009;51.436;6.972;2023-04-28T05:49:51;14.73;;;10.60;;
2011;SDS011;1009;51.436;6.972;2023-04-28T05:52:17;16.13;;;11.27;;
2011;SDS011;1009;51.436;6.972;2023-04-28T05:54:44;17.87;;;13.73;;
2011;SDS011;1009;51.436;6.972;2023-04-28T05:57:11;17.50;;;13.70;;
2011;SDS011;1009;51.436;6.972;2023-04-28T05:59:39;13.93;;;11.80;;
2011;SDS011;1009;51.436;6.972;2023-04-28T06:02:06;18.60;;;12.87;;
2011;SDS011;1009;51.436;6.972;2023-04-28T06:04:32;14.77;;;11.63;;
2011;SDS011;1009;51.436;6.972;2023-04-28T06:06:59;15.63;;;13.13;;
2011;SDS011;1009;51.436;6.972;2023-04-28T06:09:28;16.17;;;12.50;;
2011;SDS011;1009;51.436;6.972;2023-04-28T06:11:55;18.30;;;11.83;;
2011;SDS011;1009;51.436;6.972;2023-04-28T06:14:22;17.13;;;12.30;;
2011;SDS011;1009;51.436;6.972;2023-04-28T06:16:50;15.90;;;12.60;;
2011;SDS011;1009;51.436;6.972;2023-04-28T06:19:17;17.23;;;13.60;;
2011;SDS011;1009;51.436;6.972;2023-04-28T06:21:44;13.83;;;12.40;;
2011;SDS011;1009;51.436;6.972;2023-04-28T06:24:11;13.23;;;11.83;;
2011;SDS011;1009;51.436;6.972;2023-04-28T06:26:41;17.90;;;12.17;;
2011;SDS011;1009;51.436;6.972;2023-04-28T06:29:07;12.93;;;11.40;;
2011;SDS011;1009;51.436;6.972;2023-04-28T06:31:34;16.30;;;11.63;;
2011;SDS011;1009;51.436;6.972;2023-04-28T06:34:02;13.63;;;10.90;;
2011;SDS011;1009;51.436;6.972;2023-04-28T06:36:29;19.53;;;12.07;;
2011;SDS011;1009;51.436;6.972;2023-04-28T06:38:56;13.20;;;10.93;;
2011;SDS011;1009;51.436;6.972;2023-04-28T06:41:23;15.63;;;10.23;;
2011;SDS011;1009;51.436;6.972;2023-04-28T06:43:50;12.30;;;10.53;;
2011;SDS011;1009;51.436;6.972;2023-04-28T06:46:17;12.97;;;11.30;;
2011;SDS011;1009;51.436;6.972;2023-04-28T06:48:43;16.23;;;10.00;;
2011;SDS011;1009;51.436;6.972;2023-04-28T06:51:12;13.53;;;9.60;;
2011;SDS011;1009;51.436;6.972;2023-04-28T06:53:39;13.27;;;9.60;;
2011;SDS011;1009;51.436;6.972;2023-04-28T06:56:06;11.70;;;9.97;;
2011;SDS011;1009;51.436;6.972;2023-04-28T06:58:33;12.63;;;11.10;;
2011;SDS011;1009;51.436;6.972;2023-04-28T07:01:01;11.87;;;10.50;;
2011;SDS011;1009;51.436;6.972;2023-04-28T07:03:28;12.73;;;10.70;;
2011;SDS011;1009;51.436;6.972;2023-04-28T07:05:58;15.67;;;10.93;;
2011;SDS011;1009;51.436;6.972;2023-04-28T07:08:26;16.67;;;11.03;;
2011;SDS011;1009;51.436;6.972;2023-04-28T07:10:54;12.57;;;10.70;;
2011;SDS011;1009;51.436;6.972;2023-04-28T07:13:21;11.40;;;10.20;;
2011;SDS011;1009;51.436;6.972;2023-04-28T07:15:48;12.60;;;10.47;;
2011;SDS011;1009;51.436;6.972;2023-04-28T07:18:20;12.17;;;10.53;;
2011;SDS011;1009;51.436;6.972;2023-04-28T07:20:47;12.00;;;9.73;;
2011;SDS011;1009;51.436;6.972;2023-04-28T07:23:14;12.10;;;9.80;;
2011;SDS011;1009;51.436;6.972;2023-04-28T07:25:42;12.63;;;10.03;;
2011;SDS011;1009;51.436;6.972;2023-04-28T07:28:08;9.77;;;8.70;;
2011;SDS011;1009;51.436;6.972;2023-04-28T07:30:35;9.87;;;8.20;;
2011;SDS011;1009;51.436;6.972;2023-04-28T07:33:02;11.20;;;8.83;;
2011;SDS011;1009;51.436;6.972;2023-04-28T07:35:29;10.00;;;7.90;;
2011;SDS011;1009;51.436;6.972;2023-04-28T07:37:56;10.23;;;8.10;;
2011;SDS011;1009;51.436;6.972;2023-04-28T07:40:23;14.03;;;10.30;;
2011;SDS011;1009;51.436;6.972;2023-04-28T07:42:52;13.37;;;8.93;;
2011;SDS011;1009;51.436;6.972;2023-04-28T07:45:18;12.40;;;8.70;;
2011;SDS011;1009;51.436;6.972;2023-04-28T07:47:45;10.27;;;8.47;;
2011;SDS011;1009;51.436;6.972;2023-04-28T07:50:12;15.97;;;9.53;;
2011;SDS011;1009;51.436;6.972;2023-04-28T07:52:40;13.47;;;9.20;;
2011;SDS011;1009;51.436;6.972;2023-04-28T07:55:07;9.77;;;8.10;;
2011;SDS011;1009;51.436;6.972;2023-04-28T07:57:34;9.73;;;8.23;;
2011;SDS011;1009;51.436;6.972;2023-04-28T08:00:02;12.57;;;8.53;;
2011;SDS011;1009;51.436;6.972;2023-04-28T08:02:30;9.50;;;7.97;;
2011;SDS011;1009;51.436;6.972;2023-04-28T08:04:58;10.73;;;7.80;;
2011;SDS011;1009;51.436;6.972;2023-04-28T08:07:25;11.27;;;8.00;;
2011;SDS011;1009;51.436;6.972;2023-04-28T08:09:51;10.20;;;8.20;;
2011;SDS011;1009;51.436;6.972;2023-04-28T08:12:19;10.73;;;7.97;;
2011;SDS011;1009;51.436;6.972;2023-04-28T08:14:45;11.00;;;7.73;;
2011;SDS011;1009;51.436;6.972;2023-04-28T08:17:14;12.73;;;8.20;;
2011;SDS011;1009;51.436;6.972;2023-04-28T08:19:40;10.37;;;8.03;;
2011;SDS011;1009;51.436;6.972;2023-04-28T08:22:10;10.57;;;8.67;;
2011;SDS011;1009;51.436;6.972;2023-04-28T08:24:37;10.73;;;8.50;;
2011;SDS011;1009;51.436;6.972;2023-04-28T08:27:04;9.90;;;8.03;;
2011;SDS011;1009;51.436;6.972;2023-04-28T08:29:31;15.73;;;7.87;;
2011;SDS011;1009;51.436;6.972;2023-04-28T08:31:58;12.20;;;8.43;;
2011;SDS011;1009;51.436;6.972;2023-04-28T08:34:27;10.90;;;8.50;;
2011;SDS011;1009;51.436;6.972;2023-04-28T08:36:54;11.77;;;7.93;;
2011;SDS011;1009;51.436;6.972;2023-04-28T08:39:21;13.13;;;8.33;;
2011;SDS011;1009;51.436;6.972;2023-04-28T08:41:47;9.43;;;7.77;;
2011;SDS011;1009;51.436;6.972;2023-04-28T08:44:14;10.10;;;8.00;;
2011;SDS011;1009;51.436;6.972;2023-04-28T08:46:42;8.43;;;7.53;;
2011;SDS011;1009;51.436;6.972;2023-04-28T08:49:11;10.70;;;7.33;;
2011;SDS011;1009;51.436;6.972;2023-04-28T08:51:44;12.63;;;8.67;;
2011;SDS011;1009;51.436;6.972;2023-04-28T08:54:15;8.00;;;7.20;;
2011;SDS011;1009;51.436;6.972;2023-04-28T08:56:43;9.90;;;7.10;;
2011;SDS011;1009;51.436;6.972;2023-04-28T08:59:11;11.27;;;7.67;;
2011;SDS011;1009;51.436;6.972;2023-04-28T09:01:38;9.27;;;7.77;;
2011;SDS011;1009;51.436;6.972;2023-04-28T09:04:04;8.57;;;7.67;;
2011;SDS011;1009;51.436;6.972;2023-04-28T09:06:32;10.83;;;7.90;;
2011;SDS011;1009;51.436;6.972;2023-04-28T09:09:20;9.10;;;7.63;;
2011;SDS011;1009;51.436;6.972;2023-04-28T09:11:52;8.80;;;7.57;;
2011;SDS011;1009;51.436;6.972;2023-04-28T09:14:20;11.80;;;8.50;;
2011;SDS011;1009;51.436;6.972;2023-04-28T09:16:47;11.57;;;8.60;;
2011;SDS011;1009;51.436;6.972;2023-04-28T09:19:15;9.97;;;7.57;;
2011;SDS011;1009;51.436;6.972;2023-04-28T09:21:46;10.33;;;8.17;;
2011;SDS011;1009;51.436;6.972;2023-04-28T09:24:31;11.20;;;7.93;;
2011;SDS011;1009;51.436;6.972;2023-04-28T09:26:59;8.60;;;7.20;;
2011;SDS011;1009;51.436;6.972;2023-04-28T09:29:27;10.20;;;8.93;;
2011;SDS011;1009;51.436;6.972;2023-04-28T09:31:58;14.40;;;8.63;;
2011;SDS011;1009;51.436;6.972;2023-04-28T09:34:41;12.30;;;9.27;;
2011;SDS011;1009;51.436;6.972;2023-04-28T09:37:13;10.93;;;8.90;;
2011;SDS011;1009;51.436;6.972;2023-04-28T09:39:42;12.13;;;9.23;;
2011;SDS011;1009;51.436;6.972;2023-04-28T09:42:09;8.10;;;7.30;;
2011;SDS011;1009;51.436;6.972;2023-04-28T09:44:36;11.80;;;8.87;;
2011;SDS011;1009;51.436;6.972;2023-04-28T09:47:09;17.10;;;9.17;;
2011;SDS011;1009;51.436;6.972;2023-04-28T09:49:52;13.50;;;9.10;;
2011;SDS011;1009;51.436;6.972;2023-04-28T09:52:19;11.13;;;9.20;;
2011;SDS011;1009;51.436;6.972;2023-04-28T09:54:48;10.67;;;8.33;;
2011;SDS011;1009;51.436;6.972;2023-04-28T09:57:16;13.90;;;9.57;;
2011;SDS011;1009;51.436;6.972;2023-04-28T09:59:45;13.00;;;9.40;;
2011;SDS011;1009;51.436;6.972;2023-04-28T10:02:14;13.93;;;10.90;;
2011;SDS011;1009;51.436;6.972;2023-04-28T10:04:43;12.80;;;11.20;;
2011;SDS011;1009;51.436;6.972;2023-04-28T10:07:10;16.07;;;11.07;;
2011;SDS011;1009;51.436;6.972;2023-04-28T10:09:40;13.30;;;10.07;;
2011;SDS011;1009;51.436;6.972;2023-04-28T10:12:09;10.67;;;8.97;;
2011;SDS011;1009;51.436;6.972;2023-04-28T10:14:37;15.43;;;9.67;;
2011;SDS011;1009;51.436;6.972;2023-04-28T10:17:06;14.63;;;11.17;;
2011;SDS011;1009;51.436;6.972;2023-04-28T10:19:33;11.47;;;10.23;;
2011;SDS011;1009;51.436;6.972;2023-04-28T10:22:04;11.90;;;9.80;;
2011;SDS011;1009;51.436;6.972;2023-04-28T10:24:47;12.23;;;10.00;;
2011;SDS011;1009;51.436;6.972;2023-04-28T10:27:29;11.40;;;9.43;;
2011;SDS011;1009;51.436;6.972;2023-04-28T10:30:08;13.60;;;9.40;;
2011;SDS011;1009;51.436;6.972;2023-04-28T10:32:35;12.10;;;9.90;;
2011;SDS011;1009;51.436;6.972;2023-04-28T10:38:08;12.77;;;9.53;;
2011;SDS011;1009;51.436;6.972;2023-04-28T10:40:36;12.30;;;10.30;;
2011;SDS011;1009;51.436;6.972;2023-04-28T10:43:06;13.20;;;10.60;;
2011;SDS011;1009;51.436;6.972;2023-04-28T10:51:22;14.47;;;12.10;;
2011;SDS011;1009;51.436;6.972;2023-04-28T10:54:14;15.70;;;12.83;;
2011;SDS011;1009;51.436;6.972;2023-04-28T10:57:13;17.70;;;12.67;;
2011;SDS011;1009;51.436;6.972;2023-04-28T10:59:43;15.93;;;13.13;;
2011;SDS011;1009;51.436;6.972;2023-04-28T11:05:09;15.93;;;13.90;;
2011;SDS011;1009;51.436;6.972;2023-04-28T11:07:36;16.03;;;14.33;;
2011;SDS011;1009;51.436;6.972;2023-04-28T11:10:03;17.80;;;12.80;;
2011;SDS011;1009;51.436;6.972;2023-04-28T11:12:31;17.77;;;13.67;;
2011;SDS011;1009;51.436;6.972;2023-04-28T11:14:59;18.03;;;15.80;;
2011;SDS011;1009;51.436;6.972;2023-04-28T11:17:39;15.67;;;14.07;;
2011;SDS011;1009;51.436;6.972;2023-04-28T11:20:06;16.40;;;14.47;;
2011;SDS011;1009;51.436;6.972;2023-04-28T11:22:38;15.97;;;14.30;;
2011;SDS011;1009;51.436;6.972;2023-04-28T11:25:06;17.97;;;16.03;;
2011;SDS011;1009;51.436;6.972;2023-04-28T11:27:33;19.27;;;15.43;;
2011;SDS011;1009;51.436;6.972;2023-04-28T11:30:02;18.10;;;16.27;;
2011;SDS011;1009;51.436;6.972;2023-04-28T11:32:48;21.03;;;17.13;;
2011;SDS011;1009;51.436;6.972;2023-04-28T11:35:15;20.23;;;16.87;;
2011;SDS011;1009;51.436;6.972;2023-04-28T11:37:42;19.60;;;16.97;;
2011;SDS011;1009;51.436;6.972;2023-04-28T11:40:09;20.70;;;18.50;;
2011;SDS011;1009;51.436;6.972;2023-04-28T11:42:45;18.33;;;16.43;;
2011;SDS011;1009;51.436;6.972;2023-04-28T11:45:13;24.83;;;17.57;;
2011;SDS011;1009;51.436;6.972;2023-04-28T11:47:40;23.57;;;17.03;;
2011;SDS011;1009;51.436;6.972;2023-04-28T11:50:07;20.40;;;17.60;;
2011;SDS011;1009;51.436;6.972;2023-04-28T11:52:35;17.67;;;15.80;;
2011;SDS011;1009;51.436;6.972;2023-04-28T11:55:01;19.17;;;16.90;;
2011;SDS011;1009;51.436;6.972;2023-04-28T11:57:28;18.33;;;15.50;;
2011;SDS011;1009;51.436;6.972;2023-04-28T12:00:10;22.37;;;17.20;;
2011;SDS011;1009;51.436;6.972;2023-04-28T12:02:39;17.20;;;15.40;;
2011;SDS011;1009;51.436;6.972;2023-04-28T12:05:06;19.20;;;17.40;;
2011;SDS011;1009;51.436;6.972;2023-04-28T12:07:39;18.07;;;16.40;;
2011;SDS011;1009;51.436;6.972;2023-04-28T12:10:11;19.30;;;17.10;;
2011;SDS011;1009;51.436;6.972;2023-04-28T12:12:39;17.43;;;15.60;;
2011;SDS011;1009;51.436;6.972;2023-04-28T12:15:07;18.50;;;16.23;;
2011;SDS011;1009;51.436;6.972;2023-04-28T12:17:34;18.20;;;16.50;;
2011;SDS011;1009;51.436;6.972;2023-04-28T12:20:05;16.97;;;15.17;;
2011;SDS011;1009;51.436;6.972;2023-04-28T12:22:42;18.40;;;16.60;;
2011;SDS011;1009;51.436;6.972;2023-04-28T12:25:09;20.80;;;18.00;;
2011;SDS011;1009;51.436;6.972;2023-04-28T12:27:38;20.80;;;18.60;;
2011;SDS011;1009;51.436;6.972;2023-04-28T12:32:50;22.63;;;20.13;;
2011;SDS011;1009;51.436;6.972;2023-04-28T12:35:21;22.30;;;19.97;;
2011;SDS011;1009;51.436;6.972;2023-04-28T12:37:48;22.53;;;20.23;;
2011;SDS011;1009;51.436;6.972;2023-04-28T12:40:15;22.47;;;20.17;;
2011;SDS011;1009;51.436;6.972;2023-04-28T12:42:42;25.10;;;22.50;;
2011;SDS011;1009;51.436;6.972;2023-04-28T12:45:09;27.73;;;22.60;;
2011;SDS011;1009;51.436;6.972;2023-04-28T12:47:35;23.33;;;20.80;;
2011;SDS011;1009;51.436;6.972;2023-04-28T12:50:02;22.13;;;19.77;;
2011;SDS011;1009;51.436;6.972;2023-04-28T12:52:31;22.03;;;19.67;;
2011;SDS011;1009;51.436;6.972;2023-04-28T12:54:59;19.50;;;17.40;;
2011;SDS011;1009;51.436;6.972;2023-04-28T12:57:26;18.77;;;16.83;;
2011;SDS011;1009;51.436;6.972;2023-04-28T12:59:53;18.43;;;16.60;;
2011;SDS011;1009;51.436;6.972;2023-04-28T13:02:21;17.07;;;15.47;;
2011;SDS011;1009;51.436;6.972;2023-04-28T13:04:47;15.57;;;14.07;;
2011;SDS011;1009;51.436;6.972;2023-04-28T13:07:15;16.17;;;14.77;;
2011;SDS011;1009;51.436;6.972;2023-04-28T13:09:44;18.77;;;16.87;;
2011;SDS011;1009;51.436;6.972;2023-04-28T13:12:11;17.00;;;15.40;;
2011;SDS011;1009;51.436;6.972;2023-04-28T13:14:37;16.50;;;15.00;;
2011;SDS011;1009;51.436;6.972;2023-04-28T13:17:04;18.77;;;16.97;;
2011;SDS011;1009;51.436;6.972;2023-04-28T13:19:32;18.33;;;16.43;;
2011;SDS011;1009;51.436;6.972;2023-04-28T13:21:58;19.63;;;17.30;;
2011;SDS011;1009;51.436;6.972;2023-04-28T13:24:29;15.00;;;13.40;;
2011;SDS011;1009;51.436;6.972;2023-04-28T13:26:58;15.20;;;13.77;;
2011;SDS011;1009;51.436;6.972;2023-04-28T13:29:26;14.87;;;13.23;;
2011;SDS011;1009;51.436;6.972;2023-04-28T13:31:53;14.60;;;13.17;;
2011;SDS011;1009;51.436;6.972;2023-04-28T13:34:19;13.70;;;12.30;;
2011;SDS011;1009;51.436;6.972;2023-04-28T13:36:46;12.80;;;11.57;;
2011;SDS011;1009;51.436;6.972;2023-04-28T13:39:14;13.63;;;12.33;;
2011;SDS011;1009;51.436;6.972;2023-04-28T13:41:44;12.17;;;10.97;;
2011;SDS011;1009;51.436;6.972;2023-04-28T13:44:12;12.37;;;11.17;;
2011;SDS011;1009;51.436;6.972;2023-04-28T13:46:39;13.10;;;11.73;;
2011;SDS011;1009;51.436;6.972;2023-04-28T13:49:05;12.77;;;11.57;;
2011;SDS011;1009;51.436;6.972;2023-04-28T13:51:32;13.13;;;11.93;;
2011;SDS011;1009;51.436;6.972;2023-04-28T13:53:59;12.07;;;10.87;;
2011;SDS011;1009;51.436;6.972;2023-04-28T13:56:28;12.27;;;11.10;;
2011;SDS011;1009;51.436;6.972;2023-04-28T13:58:55;11.23;;;10.20;;
2011;SDS011;1009;51.436;6.972;2023-04-28T14:01:24;12.60;;;11.40;;
2011;SDS011;1009;51.436;6.972;2023-04-28T14:03:51;12.30;;;10.80;;
2011;SDS011;1009;51.436;6.972;2023-04-28T14:06:18;11.43;;;10.43;;
2011;SDS011;1009;51.436;6.972;2023-04-28T14:08:45;11.47;;;10.30;;
2011;SDS011;1009;51.436;6.972;2023-04-28T14:11:16;12.33;;;11.23;;
2011;SDS011;1009;51.436;6.972;2023-04-28T14:13:45;10.90;;;9.80;;
2011;SDS011;1009;51.436;6.972;2023-04-28T14:16:12;10.77;;;9.87;;
2011;SDS011;1009;51.436;6.972;2023-04-28T14:18:40;11.33;;;10.23;;
2011;SDS011;1009;51.436;6.972;2023-04-28T14:21:06;10.60;;;9.50;;
2011;SDS011;1009;51.436;6.972;2023-04-28T14:23:34;10.97;;;10.00;;
2011;SDS011;1009;51.436;6.972;2023-04-28T14:26:00;12.07;;;10.90;;
2011;SDS011;1009;51.436;6.972;2023-04-28T14:28:30;10.30;;;9.40;;
2011;SDS011;1009;51.436;6.972;2023-04-28T14:31:00;10.73;;;9.83;;
2011;SDS011;1009;51.436;6.972;2023-04-28T14:33:30;10.10;;;9.20;;
2011;SDS011;1009;51.436;6.972;2023-04-28T14:35:58;10.73;;;9.73;;
2011;SDS011;1009;51.436;6.972;2023-04-28T14:38:26;10.37;;;9.33;;
2011;SDS011;1009;51.436;6.972;2023-04-28T14:40:54;9.90;;;8.90;;
2011;SDS011;1009;51.436;6.972;2023-04-28T14:43:21;10.00;;;9.03;;
2011;SDS011;1009;51.436;6.972;2023-04-28T14:45:48;9.10;;;8.20;;
2011;SDS011;1009;51.436;6.972;2023-04-28T14:48:15;9.47;;;8.53;;
2011;SDS011;1009;51.436;6.972;2023-04-28T14:50:42;9.07;;;8.20;;
2011;SDS011;1009;51.436;6.972;2023-04-28T14:53:11;8.30;;;7.53;;
2011;SDS011;1009;51.436;6.972;2023-04-28T14:55:38;8.33;;;6.90;;
2011;SDS011;1009;51.436;6.972;2023-04-28T14:58:04;7.60;;;5.73;;
2011;SDS011;1009;51.436;6.972;2023-04-28T15:00:31;5.70;;;5.13;;
2011;SDS011;1009;51.436;6.972;2023-04-28T15:02:58;4.37;;;3.97;;
2011;SDS011;1009;51.436;6.972;2023-04-28T15:05:25;5.07;;;4.63;;
2011;SDS011;1009;51.436;6.972;2023-04-28T15:07:52;5.67;;;5.17;;
2011;SDS011;1009;51.436;6.972;2023-04-28T15:10:20;6.80;;;6.10;;
2011;SDS011;1009;51.436;6.972;2023-04-28T15:12:46;6.70;;;6.03;;